sensor_id;sensor_type;location;lat;lon;timestamp;P1;durP1;ratioP1;P2;durP2;ratioP2
17915;SDS011;9083;49.156;8.982;2022-11-06T00:01:08;9.83;;;5.40;;
17915;SDS011;9083;49.156;8.982;2022-11-06T00:03:35;7.73;;;4.83;;
17915;SDS011;9083;49.156;8.982;2022-11-06T00:06:04;8.13;;;5.60;;
17915;SDS011;9083;49.156;8.982;2022-11-06T00:08:48;8.77;;;5.90;;
17915;SDS011;9083;49.156;8.982;2022-11-06T00:11:14;5.40;;;4.60;;
17915;SDS011;9083;49.156;8.982;2022-11-06T00:13:43;7.67;;;5.40;;
17915;SDS011;9083;49.156;8.982;2022-11-06T00:16:11;9.53;;;5.50;;
17915;SDS011;9083;49.156;8.982;2022-11-06T00:18:38;5.60;;;5.00;;
17915;SDS011;9083;49.156;8.982;2022-11-06T00:21:05;6.90;;;5.07;;
17915;SDS011;9083;49.156;8.982;2022-11-06T00:23:32;5.97;;;4.87;;
17915;SDS011;9083;49.156;8.982;2022-11-06T00:25:58;8.67;;;5.07;;
17915;SDS011;9083;49.156;8.982;2022-11-06T00:28:25;9.10;;;5.80;;
17915;SDS011;9083;49.156;8.982;2022-11-06T00:31:00;5.83;;;4.77;;
17915;SDS011;9083;49.156;8.982;2022-11-06T00:33:26;5.73;;;4.47;;
17915;SDS011;9083;49.156;8.982;2022-11-06T00:35:53;6.20;;;4.87;;
17915;SDS011;9083;49.156;8.982;2022-11-06T00:38:19;5.70;;;5.07;;
17915;SDS011;9083;49.156;8.982;2022-11-06T00:40:45;9.83;;;5.50;;
17915;SDS011;9083;49.156;8.982;2022-11-06T00:43:12;6.10;;;4.83;;
17915;SDS011;9083;49.156;8.982;2022-11-06T00:45:38;10.43;;;4.87;;
17915;SDS011;9083;49.156;8.982;2022-11-06T00:48:06;10.63;;;5.17;;
17915;SDS011;9083;49.156;8.982;2022-11-06T00:50:32;8.87;;;5.47;;
17915;SDS011;9083;49.156;8.982;2022-11-06T00:52:58;7.93;;;6.30;;
17915;SDS011;9083;49.156;8.982;2022-11-06T00:55:25;6.97;;;5.37;;
17915;SDS011;9083;49.156;8.982;2022-11-06T00:57:51;7.57;;;5.67;;
17915;SDS011;9083;49.156;8.982;2022-11-06T01:00:17;5.60;;;5.10;;
17915;SDS011;9083;49.156;8.982;2022-11-06T01:02:45;8.37;;;5.47;;
17915;SDS011;9083;49.156;8.982;2022-11-06T01:05:13;11.10;;;5.47;;
17915;SDS011;9083;49.156;8.982;2022-11-06T01:07:39;7.70;;;5.20;;
17915;SDS011;9083;49.156;8.982;2022-11-06T01:10:06;8.03;;;5.70;;
17915;SDS011;9083;49.156;8.982;2022-11-06T01:12:33;15.23;;;6.17;;
17915;SDS011;9083;49.156;8.982;2022-11-06T01:14:59;8.47;;;5.97;;
17915;SDS011;9083;49.156;8.982;2022-11-06T01:17:26;8.43;;;5.23;;
17915;SDS011;9083;49.156;8.982;2022-11-06T01:19:52;8.17;;;5.20;;
17915;SDS011;9083;49.156;8.982;2022-11-06T01:22:20;11.87;;;5.47;;
17915;SDS011;9083;49.156;8.982;2022-11-06T01:24:46;6.03;;;5.23;;
17915;SDS011;9083;49.156;8.982;2022-11-06T01:27:13;10.00;;;5.23;;
17915;SDS011;9083;49.156;8.982;2022-11-06T01:29:39;8.23;;;5.33;;
17915;SDS011;9083;49.156;8.982;2022-11-06T01:32:05;10.97;;;4.97;;
17915;SDS011;9083;49.156;8.982;2022-11-06T01:34:32;9.83;;;5.60;;
17915;SDS011;9083;49.156;8.982;2022-11-06T01:36:58;6.67;;;4.97;;
17915;SDS011;9083;49.156;8.982;2022-11-06T01:39:26;10.77;;;5.23;;
17915;SDS011;9083;49.156;8.982;2022-11-06T01:41:53;5.87;;;5.27;;
17915;SDS011;9083;49.156;8.982;2022-11-06T01:47:04;7.47;;;4.70;;
17915;SDS011;9083;49.156;8.982;2022-11-06T01:49:41;6.50;;;5.33;;
17915;SDS011;9083;49.156;8.982;2022-11-06T01:52:08;8.50;;;5.93;;
17915;SDS011;9083;49.156;8.982;2022-11-06T01:54:37;5.97;;;5.13;;
17915;SDS011;9083;49.156;8.982;2022-11-06T01:57:04;7.93;;;5.80;;
17915;SDS011;9083;49.156;8.982;2022-11-06T01:59:33;7.33;;;5.00;;
17915;SDS011;9083;49.156;8.982;2022-11-06T02:02:00;8.90;;;5.93;;
17915;SDS011;9083;49.156;8.982;2022-11-06T02:04:27;9.47;;;5.67;;
17915;SDS011;9083;49.156;8.982;2022-11-06T02:06:54;7.27;;;5.57;;
17915;SDS011;9083;49.156;8.982;2022-11-06T02:09:21;10.17;;;5.93;;
17915;SDS011;9083;49.156;8.982;2022-11-06T02:11:54;11.30;;;6.00;;
17915;SDS011;9083;49.156;8.982;2022-11-06T02:14:24;6.20;;;4.93;;
17915;SDS011;9083;49.156;8.982;2022-11-06T02:16:53;9.63;;;5.50;;
17915;SDS011;9083;49.156;8.982;2022-11-06T02:19:29;12.70;;;6.17;;
17915;SDS011;9083;49.156;8.982;2022-11-06T02:27:38;6.77;;;5.13;;
17915;SDS011;9083;49.156;8.982;2022-11-06T02:30:06;6.97;;;5.37;;
17915;SDS011;9083;49.156;8.982;2022-11-06T02:32:34;9.57;;;5.70;;
17915;SDS011;9083;49.156;8.982;2022-11-06T02:35:04;10.67;;;5.80;;
17915;SDS011;9083;49.156;8.982;2022-11-06T02:37:35;10.07;;;6.40;;
17915;SDS011;9083;49.156;8.982;2022-11-06T02:40:03;9.87;;;5.97;;
17915;SDS011;9083;49.156;8.982;2022-11-06T02:42:31;10.63;;;6.27;;
17915;SDS011;9083;49.156;8.982;2022-11-06T02:45:02;8.60;;;5.77;;
17915;SDS011;9083;49.156;8.982;2022-11-06T02:47:30;9.90;;;6.57;;
17915;SDS011;9083;49.156;8.982;2022-11-06T02:49:59;9.57;;;6.50;;
17915;SDS011;9083;49.156;8.982;2022-11-06T02:52:27;10.17;;;6.93;;
17915;SDS011;9083;49.156;8.982;2022-11-06T02:54:59;10.53;;;6.17;;
17915;SDS011;9083;49.156;8.982;2022-11-06T03:00:26;7.90;;;5.80;;
17915;SDS011;9083;49.156;8.982;2022-11-06T03:02:54;11.27;;;7.30;;
17915;SDS011;9083;49.156;8.982;2022-11-06T03:05:22;9.33;;;6.13;;
17915;SDS011;9083;49.156;8.982;2022-11-06T03:07:52;7.43;;;6.40;;
17915;SDS011;9083;49.156;8.982;2022-11-06T03:10:20;15.20;;;6.43;;
17915;SDS011;9083;49.156;8.982;2022-11-06T03:12:50;10.87;;;6.77;;
17915;SDS011;9083;49.156;8.982;2022-11-06T03:15:19;10.33;;;6.43;;
17915;SDS011;9083;49.156;8.982;2022-11-06T03:17:50;12.20;;;7.20;;
17915;SDS011;9083;49.156;8.982;2022-11-06T03:20:19;9.53;;;6.53;;
17915;SDS011;9083;49.156;8.982;2022-11-06T03:22:48;11.87;;;6.70;;
17915;SDS011;9083;49.156;8.982;2022-11-06T03:25:16;8.53;;;6.23;;
17915;SDS011;9083;49.156;8.982;2022-11-06T03:27:48;9.43;;;6.50;;
17915;SDS011;9083;49.156;8.982;2022-11-06T03:30:15;9.63;;;6.00;;
17915;SDS011;9083;49.156;8.982;2022-11-06T03:32:43;8.63;;;6.40;;
17915;SDS011;9083;49.156;8.982;2022-11-06T03:35:14;8.80;;;6.13;;
17915;SDS011;9083;49.156;8.982;2022-11-06T03:37:53;9.33;;;7.17;;
17915;SDS011;9083;49.156;8.982;2022-11-06T03:40:21;14.50;;;6.10;;
17915;SDS011;9083;49.156;8.982;2022-11-06T03:42:48;8.53;;;6.37;;
17915;SDS011;9083;49.156;8.982;2022-11-06T03:45:17;10.37;;;6.27;;
17915;SDS011;9083;49.156;8.982;2022-11-06T03:47:45;9.70;;;6.57;;
17915;SDS011;9083;49.156;8.982;2022-11-06T03:50:15;23.53;;;6.83;;
17915;SDS011;9083;49.156;8.982;2022-11-06T03:52:43;9.13;;;6.40;;
17915;SDS011;9083;49.156;8.982;2022-11-06T03:55:12;7.90;;;6.67;;
17915;SDS011;9083;49.156;8.982;2022-11-06T03:57:40;9.30;;;6.80;;
17915;SDS011;9083;49.156;8.982;2022-11-06T04:00:08;10.83;;;7.30;;
17915;SDS011;9083;49.156;8.982;2022-11-06T04:02:36;8.50;;;7.10;;
17915;SDS011;9083;49.156;8.982;2022-11-06T04:05:04;12.97;;;7.30;;
17915;SDS011;9083;49.156;8.982;2022-11-06T04:07:33;12.33;;;6.90;;
17915;SDS011;9083;49.156;8.982;2022-11-06T04:10:02;10.10;;;7.53;;
17915;SDS011;9083;49.156;8.982;2022-11-06T04:12:47;11.87;;;7.20;;
17915;SDS011;9083;49.156;8.982;2022-11-06T04:15:32;9.43;;;6.80;;
17915;SDS011;9083;49.156;8.982;2022-11-06T04:18:01;8.63;;;6.87;;
17915;SDS011;9083;49.156;8.982;2022-11-06T04:20:28;10.03;;;6.80;;
17915;SDS011;9083;49.156;8.982;2022-11-06T04:23:19;12.27;;;7.20;;
17915;SDS011;9083;49.156;8.982;2022-11-06T04:25:51;11.13;;;8.03;;
17915;SDS011;9083;49.156;8.982;2022-11-06T04:28:39;12.33;;;7.90;;
17915;SDS011;9083;49.156;8.982;2022-11-06T04:31:09;12.27;;;7.63;;
17915;SDS011;9083;49.156;8.982;2022-11-06T04:33:38;9.90;;;6.80;;
17915;SDS011;9083;49.156;8.982;2022-11-06T04:36:10;10.50;;;7.10;;
17915;SDS011;9083;49.156;8.982;2022-11-06T04:38:41;14.07;;;6.80;;
17915;SDS011;9083;49.156;8.982;2022-11-06T04:41:11;8.40;;;7.07;;
17915;SDS011;9083;49.156;8.982;2022-11-06T04:43:39;10.03;;;6.73;;
17915;SDS011;9083;49.156;8.982;2022-11-06T04:46:07;11.73;;;7.00;;
17915;SDS011;9083;49.156;8.982;2022-11-06T04:48:35;12.63;;;7.73;;
17915;SDS011;9083;49.156;8.982;2022-11-06T04:51:02;13.87;;;7.90;;
17915;SDS011;9083;49.156;8.982;2022-11-06T04:53:31;9.57;;;6.87;;
17915;SDS011;9083;49.156;8.982;2022-11-06T04:56:00;10.40;;;7.10;;
17915;SDS011;9083;49.156;8.982;2022-11-06T04:58:31;10.87;;;6.73;;
17915;SDS011;9083;49.156;8.982;2022-11-06T05:00:57;13.80;;;7.67;;
17915;SDS011;9083;49.156;8.982;2022-11-06T05:03:23;13.67;;;7.27;;
17915;SDS011;9083;49.156;8.982;2022-11-06T05:05:50;12.63;;;8.07;;
17915;SDS011;9083;49.156;8.982;2022-11-06T05:08:17;15.13;;;7.70;;
17915;SDS011;9083;49.156;8.982;2022-11-06T05:10:44;11.40;;;8.07;;
17915;SDS011;9083;49.156;8.982;2022-11-06T05:13:12;14.57;;;7.83;;
17915;SDS011;9083;49.156;8.982;2022-11-06T05:15:39;10.17;;;7.30;;
17915;SDS011;9083;49.156;8.982;2022-11-06T05:18:06;11.17;;;7.67;;
17915;SDS011;9083;49.156;8.982;2022-11-06T05:20:32;12.00;;;7.57;;
17915;SDS011;9083;49.156;8.982;2022-11-06T05:22:59;11.27;;;7.73;;
17915;SDS011;9083;49.156;8.982;2022-11-06T05:25:25;14.50;;;9.13;;
17915;SDS011;9083;49.156;8.982;2022-11-06T05:27:51;15.23;;;9.57;;
17915;SDS011;9083;49.156;8.982;2022-11-06T05:30:19;12.23;;;8.43;;
17915;SDS011;9083;49.156;8.982;2022-11-06T05:32:45;14.47;;;7.77;;
17915;SDS011;9083;49.156;8.982;2022-11-06T05:35:12;11.33;;;7.70;;
17915;SDS011;9083;49.156;8.982;2022-11-06T05:37:38;12.63;;;8.07;;
17915;SDS011;9083;49.156;8.982;2022-11-06T05:40:05;12.23;;;7.23;;
17915;SDS011;9083;49.156;8.982;2022-11-06T05:42:32;10.77;;;7.00;;
17915;SDS011;9083;49.156;8.982;2022-11-06T05:44:58;11.40;;;7.53;;
17915;SDS011;9083;49.156;8.982;2022-11-06T05:47:26;9.07;;;6.50;;
17915;SDS011;9083;49.156;8.982;2022-11-06T05:49:52;13.93;;;8.00;;
17915;SDS011;9083;49.156;8.982;2022-11-06T05:52:19;13.50;;;7.23;;
17915;SDS011;9083;49.156;8.982;2022-11-06T05:54:45;11.10;;;8.03;;
17915;SDS011;9083;49.156;8.982;2022-11-06T05:57:11;10.00;;;7.60;;
17915;SDS011;9083;49.156;8.982;2022-11-06T05:59:38;13.40;;;8.27;;
17915;SDS011;9083;49.156;8.982;2022-11-06T06:02:04;14.77;;;8.03;;
17915;SDS011;9083;49.156;8.982;2022-11-06T06:04:32;12.53;;;7.80;;
17915;SDS011;9083;49.156;8.982;2022-11-06T06:06:58;20.10;;;8.43;;
17915;SDS011;9083;49.156;8.982;2022-11-06T06:09:24;13.90;;;7.87;;
17915;SDS011;9083;49.156;8.982;2022-11-06T06:11:51;9.73;;;6.97;;
17915;SDS011;9083;49.156;8.982;2022-11-06T06:14:17;15.33;;;7.50;;
17915;SDS011;9083;49.156;8.982;2022-11-06T06:16:44;14.20;;;7.50;;
17915;SDS011;9083;49.156;8.982;2022-11-06T06:19:10;11.90;;;7.50;;
17915;SDS011;9083;49.156;8.982;2022-11-06T06:21:38;11.00;;;7.43;;
17915;SDS011;9083;49.156;8.982;2022-11-06T06:24:05;13.70;;;7.07;;
17915;SDS011;9083;49.156;8.982;2022-11-06T06:26:31;15.70;;;6.73;;
17915;SDS011;9083;49.156;8.982;2022-11-06T06:28:57;12.00;;;8.13;;
17915;SDS011;9083;49.156;8.982;2022-11-06T06:31:26;11.60;;;7.37;;
17915;SDS011;9083;49.156;8.982;2022-11-06T06:33:52;11.83;;;7.90;;
17915;SDS011;9083;49.156;8.982;2022-11-06T06:36:18;14.30;;;8.50;;
17915;SDS011;9083;49.156;8.982;2022-11-06T06:38:46;12.93;;;7.90;;
17915;SDS011;9083;49.156;8.982;2022-11-06T06:41:12;11.87;;;7.47;;
17915;SDS011;9083;49.156;8.982;2022-11-06T06:43:39;11.97;;;7.00;;
17915;SDS011;9083;49.156;8.982;2022-11-06T06:46:05;11.00;;;7.27;;
17915;SDS011;9083;49.156;8.982;2022-11-06T06:48:32;20.57;;;8.97;;
17915;SDS011;9083;49.156;8.982;2022-11-06T06:50:58;15.33;;;8.90;;
17915;SDS011;9083;49.156;8.982;2022-11-06T06:53:25;15.33;;;8.67;;
17915;SDS011;9083;49.156;8.982;2022-11-06T06:55:53;17.20;;;9.80;;
17915;SDS011;9083;49.156;8.982;2022-11-06T06:58:19;29.90;;;13.77;;
17915;SDS011;9083;49.156;8.982;2022-11-06T07:00:46;26.07;;;13.87;;
17915;SDS011;9083;49.156;8.982;2022-11-06T07:03:12;16.57;;;10.00;;
17915;SDS011;9083;49.156;8.982;2022-11-06T07:05:38;17.17;;;9.00;;
17915;SDS011;9083;49.156;8.982;2022-11-06T07:08:05;17.33;;;9.77;;
17915;SDS011;9083;49.156;8.982;2022-11-06T07:10:31;13.80;;;8.57;;
17915;SDS011;9083;49.156;8.982;2022-11-06T07:13:00;13.27;;;8.53;;
17915;SDS011;9083;49.156;8.982;2022-11-06T07:15:27;9.90;;;7.37;;
17915;SDS011;9083;49.156;8.982;2022-11-06T07:17:53;11.63;;;6.90;;
17915;SDS011;9083;49.156;8.982;2022-11-06T07:20:19;15.67;;;8.30;;
17915;SDS011;9083;49.156;8.982;2022-11-06T07:22:46;19.70;;;8.73;;
17915;SDS011;9083;49.156;8.982;2022-11-06T07:25:12;15.83;;;8.60;;
17915;SDS011;9083;49.156;8.982;2022-11-06T07:27:38;12.60;;;7.90;;
17915;SDS011;9083;49.156;8.982;2022-11-06T07:30:07;13.57;;;7.87;;
17915;SDS011;9083;49.156;8.982;2022-11-06T07:32:33;14.03;;;8.70;;
17915;SDS011;9083;49.156;8.982;2022-11-06T07:35:00;16.30;;;8.70;;
17915;SDS011;9083;49.156;8.982;2022-11-06T07:37:26;14.10;;;8.07;;
17915;SDS011;9083;49.156;8.982;2022-11-06T07:39:53;13.63;;;9.10;;
17915;SDS011;9083;49.156;8.982;2022-11-06T07:42:19;14.77;;;7.93;;
17915;SDS011;9083;49.156;8.982;2022-11-06T07:44:45;14.43;;;8.13;;
17915;SDS011;9083;49.156;8.982;2022-11-06T07:47:13;14.03;;;8.60;;
17915;SDS011;9083;49.156;8.982;2022-11-06T07:49:39;14.83;;;7.80;;
17915;SDS011;9083;49.156;8.982;2022-11-06T07:52:06;13.27;;;8.10;;
17915;SDS011;9083;49.156;8.982;2022-11-06T07:54:32;11.60;;;7.90;;
17915;SDS011;9083;49.156;8.982;2022-11-06T07:56:59;14.20;;;8.70;;
17915;SDS011;9083;49.156;8.982;2022-11-06T07:59:25;11.47;;;8.17;;
17915;SDS011;9083;49.156;8.982;2022-11-06T08:01:51;16.20;;;8.60;;
17915;SDS011;9083;49.156;8.982;2022-11-06T08:04:19;13.93;;;9.27;;
17915;SDS011;9083;49.156;8.982;2022-11-06T08:06:45;17.97;;;10.70;;
17915;SDS011;9083;49.156;8.982;2022-11-06T08:09:11;13.50;;;9.00;;
17915;SDS011;9083;49.156;8.982;2022-11-06T08:11:38;13.67;;;8.70;;
17915;SDS011;9083;49.156;8.982;2022-11-06T08:14:04;13.90;;;9.03;;
17915;SDS011;9083;49.156;8.982;2022-11-06T08:16:30;14.43;;;8.00;;
17915;SDS011;9083;49.156;8.982;2022-11-06T08:18:59;11.17;;;7.80;;
17915;SDS011;9083;49.156;8.982;2022-11-06T08:21:26;16.43;;;8.03;;
17915;SDS011;9083;49.156;8.982;2022-11-06T08:23:53;11.80;;;7.33;;
17915;SDS011;9083;49.156;8.982;2022-11-06T08:26:19;14.77;;;8.77;;
17915;SDS011;9083;49.156;8.982;2022-11-06T08:28:45;14.27;;;8.43;;
17915;SDS011;9083;49.156;8.982;2022-11-06T08:31:12;13.20;;;8.33;;
17915;SDS011;9083;49.156;8.982;2022-11-06T08:33:38;14.63;;;8.93;;
17915;SDS011;9083;49.156;8.982;2022-11-06T08:36:05;18.37;;;9.67;;
17915;SDS011;9083;49.156;8.982;2022-11-06T08:38:33;17.77;;;10.03;;
17915;SDS011;9083;49.156;8.982;2022-11-06T08:41:03;17.47;;;10.10;;
17915;SDS011;9083;49.156;8.982;2022-11-06T08:43:29;16.90;;;9.60;;
17915;SDS011;9083;49.156;8.982;2022-11-06T08:45:55;15.30;;;9.10;;
17915;SDS011;9083;49.156;8.982;2022-11-06T08:48:22;14.97;;;8.57;;
17915;SDS011;9083;49.156;8.982;2022-11-06T08:50:48;18.40;;;9.73;;
17915;SDS011;9083;49.156;8.982;2022-11-06T08:53:14;18.53;;;10.50;;
17915;SDS011;9083;49.156;8.982;2022-11-06T08:55:42;18.67;;;9.07;;
17915;SDS011;9083;49.156;8.982;2022-11-06T08:58:08;17.63;;;8.83;;
17915;SDS011;9083;49.156;8.982;2022-11-06T09:00:35;16.33;;;9.63;;
17915;SDS011;9083;49.156;8.982;2022-11-06T09:03:02;16.27;;;9.93;;
17915;SDS011;9083;49.156;8.982;2022-11-06T09:05:28;16.67;;;8.43;;
17915;SDS011;9083;49.156;8.982;2022-11-06T09:07:55;16.80;;;9.90;;
17915;SDS011;9083;49.156;8.982;2022-11-06T09:10:22;17.93;;;9.30;;
17915;SDS011;9083;49.156;8.982;2022-11-06T09:12:49;17.50;;;8.97;;
17915;SDS011;9083;49.156;8.982;2022-11-06T09:15:16;19.77;;;10.80;;
17915;SDS011;9083;49.156;8.982;2022-11-06T09:17:44;16.90;;;9.73;;
17915;SDS011;9083;49.156;8.982;2022-11-06T09:20:11;17.37;;;9.77;;
17915;SDS011;9083;49.156;8.982;2022-11-06T09:22:38;14.50;;;9.73;;
17915;SDS011;9083;49.156;8.982;2022-11-06T09:25:05;19.03;;;10.93;;
17915;SDS011;9083;49.156;8.982;2022-11-06T09:27:31;15.93;;;9.13;;
17915;SDS011;9083;49.156;8.982;2022-11-06T09:29:59;18.00;;;9.50;;
17915;SDS011;9083;49.156;8.982;2022-11-06T09:32:26;14.77;;;8.73;;
17915;SDS011;9083;49.156;8.982;2022-11-06T09:34:52;14.83;;;8.03;;
17915;SDS011;9083;49.156;8.982;2022-11-06T09:37:18;15.40;;;8.63;;
17915;SDS011;9083;49.156;8.982;2022-11-06T09:39:45;14.90;;;9.53;;
17915;SDS011;9083;49.156;8.982;2022-11-06T09:42:13;18.13;;;9.13;;
17915;SDS011;9083;49.156;8.982;2022-11-06T09:44:48;15.77;;;9.03;;
17915;SDS011;9083;49.156;8.982;2022-11-06T09:47:20;13.17;;;8.57;;
17915;SDS011;9083;49.156;8.982;2022-11-06T09:49:48;15.40;;;8.40;;
17915;SDS011;9083;49.156;8.982;2022-11-06T09:52:16;14.10;;;8.17;;
17915;SDS011;9083;49.156;8.982;2022-11-06T09:54:45;16.67;;;8.53;;
17915;SDS011;9083;49.156;8.982;2022-11-06T09:57:14;11.37;;;7.37;;
17915;SDS011;9083;49.156;8.982;2022-11-06T09:59:43;13.23;;;8.27;;
17915;SDS011;9083;49.156;8.982;2022-11-06T10:02:15;12.47;;;7.97;;
17915;SDS011;9083;49.156;8.982;2022-11-06T10:04:47;13.13;;;8.27;;
17915;SDS011;9083;49.156;8.982;2022-11-06T10:07:18;13.07;;;8.20;;
17915;SDS011;9083;49.156;8.982;2022-11-06T10:09:49;11.53;;;7.87;;
17915;SDS011;9083;49.156;8.982;2022-11-06T10:12:16;10.97;;;7.20;;
17915;SDS011;9083;49.156;8.982;2022-11-06T10:14:50;15.20;;;7.23;;
17915;SDS011;9083;49.156;8.982;2022-11-06T10:17:21;11.47;;;7.07;;
17915;SDS011;9083;49.156;8.982;2022-11-06T10:19:53;12.03;;;7.47;;
17915;SDS011;9083;49.156;8.982;2022-11-06T10:22:22;11.87;;;6.73;;
17915;SDS011;9083;49.156;8.982;2022-11-06T10:24:51;11.47;;;6.87;;
17915;SDS011;9083;49.156;8.982;2022-11-06T10:27:23;10.17;;;7.03;;
17915;SDS011;9083;49.156;8.982;2022-11-06T10:30:01;10.87;;;6.50;;
17915;SDS011;9083;49.156;8.982;2022-11-06T10:32:32;14.10;;;7.87;;
17915;SDS011;9083;49.156;8.982;2022-11-06T10:35:01;12.13;;;7.10;;
17915;SDS011;9083;49.156;8.982;2022-11-06T10:37:31;10.07;;;6.70;;
17915;SDS011;9083;49.156;8.982;2022-11-06T10:40:02;9.80;;;6.97;;
17915;SDS011;9083;49.156;8.982;2022-11-06T10:42:30;9.77;;;6.37;;
17915;SDS011;9083;49.156;8.982;2022-11-06T10:45:00;9.17;;;5.80;;
17915;SDS011;9083;49.156;8.982;2022-11-06T10:47:28;10.40;;;6.30;;
17915;SDS011;9083;49.156;8.982;2022-11-06T10:49:56;9.00;;;6.10;;
17915;SDS011;9083;49.156;8.982;2022-11-06T10:55:29;9.30;;;6.63;;
17915;SDS011;9083;49.156;8.982;2022-11-06T10:58:00;11.90;;;6.87;;
17915;SDS011;9083;49.156;8.982;2022-11-06T11:00:27;13.33;;;7.10;;
17915;SDS011;9083;49.156;8.982;2022-11-06T11:02:55;11.97;;;7.43;;
17915;SDS011;9083;49.156;8.982;2022-11-06T11:05:23;10.80;;;6.33;;
17915;SDS011;9083;49.156;8.982;2022-11-06T11:07:54;8.07;;;5.80;;
17915;SDS011;9083;49.156;8.982;2022-11-06T11:10:25;8.93;;;6.30;;
17915;SDS011;9083;49.156;8.982;2022-11-06T11:12:54;9.70;;;5.67;;
17915;SDS011;9083;49.156;8.982;2022-11-06T11:15:24;8.03;;;5.03;;
17915;SDS011;9083;49.156;8.982;2022-11-06T11:18:08;7.83;;;5.57;;
17915;SDS011;9083;49.156;8.982;2022-11-06T11:20:35;7.90;;;5.40;;
17915;SDS011;9083;49.156;8.982;2022-11-06T11:23:06;9.93;;;5.77;;
17915;SDS011;9083;49.156;8.982;2022-11-06T11:25:32;8.07;;;6.10;;
17915;SDS011;9083;49.156;8.982;2022-11-06T11:28:00;8.97;;;5.73;;
17915;SDS011;9083;49.156;8.982;2022-11-06T11:30:28;8.70;;;5.87;;
17915;SDS011;9083;49.156;8.982;2022-11-06T11:32:55;10.73;;;5.77;;
17915;SDS011;9083;49.156;8.982;2022-11-06T11:35:24;9.43;;;5.93;;
17915;SDS011;9083;49.156;8.982;2022-11-06T11:37:50;8.10;;;5.50;;
17915;SDS011;9083;49.156;8.982;2022-11-06T11:40:17;9.20;;;5.63;;
17915;SDS011;9083;49.156;8.982;2022-11-06T11:42:44;8.67;;;5.83;;
17915;SDS011;9083;49.156;8.982;2022-11-06T11:45:13;7.90;;;5.33;;
17915;SDS011;9083;49.156;8.982;2022-11-06T11:47:40;11.67;;;5.57;;
17915;SDS011;9083;49.156;8.982;2022-11-06T11:50:16;8.87;;;4.80;;
17915;SDS011;9083;49.156;8.982;2022-11-06T11:52:43;9.53;;;6.53;;
17915;SDS011;9083;49.156;8.982;2022-11-06T11:55:17;6.90;;;4.63;;
17915;SDS011;9083;49.156;8.982;2022-11-06T11:58:01;8.77;;;4.50;;
17915;SDS011;9083;49.156;8.982;2022-11-06T12:00:29;7.77;;;3.77;;
17915;SDS011;9083;49.156;8.982;2022-11-06T12:02:56;4.87;;;3.80;;
17915;SDS011;9083;49.156;8.982;2022-11-06T12:05:24;5.47;;;3.63;;
17915;SDS011;9083;49.156;8.982;2022-11-06T12:07:53;5.07;;;3.60;;
17915;SDS011;9083;49.156;8.982;2022-11-06T12:10:21;4.27;;;3.70;;
17915;SDS011;9083;49.156;8.982;2022-11-06T12:12:51;4.70;;;3.53;;
17915;SDS011;9083;49.156;8.982;2022-11-06T12:15:18;4.63;;;3.53;;
17915;SDS011;9083;49.156;8.982;2022-11-06T12:17:51;5.83;;;3.13;;
17915;SDS011;9083;49.156;8.982;2022-11-06T12:20:19;4.00;;;3.10;;
17915;SDS011;9083;49.156;8.982;2022-11-06T12:22:47;9.83;;;3.70;;
17915;SDS011;9083;49.156;8.982;2022-11-06T12:25:17;5.60;;;3.97;;
17915;SDS011;9083;49.156;8.982;2022-11-06T12:27:45;6.00;;;4.10;;
17915;SDS011;9083;49.156;8.982;2022-11-06T12:30:13;9.10;;;4.80;;
17915;SDS011;9083;49.156;8.982;2022-11-06T12:32:44;7.00;;;4.17;;
17915;SDS011;9083;49.156;8.982;2022-11-06T12:35:16;6.03;;;4.07;;
17915;SDS011;9083;49.156;8.982;2022-11-06T12:37:47;5.10;;;3.70;;
17915;SDS011;9083;49.156;8.982;2022-11-06T12:40:17;6.13;;;3.83;;
17915;SDS011;9083;49.156;8.982;2022-11-06T12:42:51;5.30;;;3.50;;
17915;SDS011;9083;49.156;8.982;2022-11-06T12:45:19;8.23;;;5.33;;
17915;SDS011;9083;49.156;8.982;2022-11-06T12:47:47;5.87;;;4.20;;
17915;SDS011;9083;49.156;8.982;2022-11-06T12:50:29;6.07;;;4.20;;
17915;SDS011;9083;49.156;8.982;2022-11-06T12:53:04;6.03;;;4.30;;
17915;SDS011;9083;49.156;8.982;2022-11-06T12:55:34;6.60;;;4.47;;
17915;SDS011;9083;49.156;8.982;2022-11-06T12:58:10;5.47;;;4.00;;
17915;SDS011;9083;49.156;8.982;2022-11-06T13:00:45;4.93;;;4.13;;
17915;SDS011;9083;49.156;8.982;2022-11-06T13:03:19;5.53;;;4.27;;
17915;SDS011;9083;49.156;8.982;2022-11-06T13:05:51;6.30;;;4.43;;
17915;SDS011;9083;49.156;8.982;2022-11-06T13:08:23;9.40;;;4.80;;
17915;SDS011;9083;49.156;8.982;2022-11-06T13:10:58;6.47;;;5.30;;
17915;SDS011;9083;49.156;8.982;2022-11-06T13:13:34;9.40;;;5.50;;
17915;SDS011;9083;49.156;8.982;2022-11-06T13:16:02;6.10;;;4.47;;
17915;SDS011;9083;49.156;8.982;2022-11-06T13:18:33;8.20;;;5.47;;
17915;SDS011;9083;49.156;8.982;2022-11-06T13:21:02;10.40;;;6.40;;
17915;SDS011;9083;49.156;8.982;2022-11-06T13:23:32;9.67;;;6.50;;
17915;SDS011;9083;49.156;8.982;2022-11-06T13:26:01;8.87;;;6.23;;
17915;SDS011;9083;49.156;8.982;2022-11-06T13:28:29;9.97;;;5.33;;
17915;SDS011;9083;49.156;8.982;2022-11-06T13:30:57;7.37;;;5.80;;
17915;SDS011;9083;49.156;8.982;2022-11-06T13:33:27;7.93;;;5.23;;
17915;SDS011;9083;49.156;8.982;2022-11-06T13:35:55;7.33;;;5.03;;
17915;SDS011;9083;49.156;8.982;2022-11-06T13:38:24;7.43;;;5.57;;
17915;SDS011;9083;49.156;8.982;2022-11-06T13:40:53;7.67;;;5.33;;
17915;SDS011;9083;49.156;8.982;2022-11-06T13:43:21;6.97;;;5.33;;
17915;SDS011;9083;49.156;8.982;2022-11-06T13:45:50;10.47;;;5.37;;
17915;SDS011;9083;49.156;8.982;2022-11-06T13:48:23;9.27;;;5.53;;
17915;SDS011;9083;49.156;8.982;2022-11-06T13:50:52;9.47;;;5.20;;
17915;SDS011;9083;49.156;8.982;2022-11-06T13:53:24;8.97;;;5.63;;
17915;SDS011;9083;49.156;8.982;2022-11-06T13:55:56;8.93;;;5.63;;
17915;SDS011;9083;49.156;8.982;2022-11-06T13:58:29;11.37;;;6.53;;
17915;SDS011;9083;49.156;8.982;2022-11-06T14:01:04;12.27;;;7.00;;
17915;SDS011;9083;49.156;8.982;2022-11-06T14:03:48;7.70;;;5.93;;
17915;SDS011;9083;49.156;8.982;2022-11-06T14:06:17;8.50;;;6.03;;
17915;SDS011;9083;49.156;8.982;2022-11-06T14:08:48;9.27;;;5.63;;
17915;SDS011;9083;49.156;8.982;2022-11-06T14:11:16;8.33;;;5.37;;
17915;SDS011;9083;49.156;8.982;2022-11-06T14:13:54;7.97;;;5.57;;
17915;SDS011;9083;49.156;8.982;2022-11-06T14:16:25;7.37;;;5.23;;
17915;SDS011;9083;49.156;8.982;2022-11-06T14:18:53;5.83;;;4.50;;
17915;SDS011;9083;49.156;8.982;2022-11-06T14:21:27;4.27;;;3.87;;
17915;SDS011;9083;49.156;8.982;2022-11-06T14:23:56;4.30;;;3.40;;
17915;SDS011;9083;49.156;8.982;2022-11-06T14:26:36;3.30;;;2.90;;
17915;SDS011;9083;49.156;8.982;2022-11-06T14:32:00;3.30;;;2.93;;
17915;SDS011;9083;49.156;8.982;2022-11-06T14:34:26;2.90;;;2.60;;
17915;SDS011;9083;49.156;8.982;2022-11-06T14:36:53;3.27;;;2.97;;
17915;SDS011;9083;49.156;8.982;2022-11-06T14:39:30;3.67;;;2.60;;
17915;SDS011;9083;49.156;8.982;2022-11-06T14:42:17;2.77;;;2.53;;
17915;SDS011;9083;49.156;8.982;2022-11-06T14:44:45;4.17;;;2.47;;
17915;SDS011;9083;49.156;8.982;2022-11-06T14:47:19;2.63;;;2.43;;
17915;SDS011;9083;49.156;8.982;2022-11-06T14:49:48;2.80;;;2.60;;
17915;SDS011;9083;49.156;8.982;2022-11-06T14:52:15;3.00;;;2.37;;
17915;SDS011;9083;49.156;8.982;2022-11-06T14:54:48;2.60;;;2.40;;
17915;SDS011;9083;49.156;8.982;2022-11-06T14:57:15;2.60;;;2.40;;
17915;SDS011;9083;49.156;8.982;2022-11-06T14:59:44;2.37;;;2.17;;
17915;SDS011;9083;49.156;8.982;2022-11-06T15:02:15;2.13;;;2.03;;
17915;SDS011;9083;49.156;8.982;2022-11-06T15:04:43;2.30;;;2.20;;
17915;SDS011;9083;49.156;8.982;2022-11-06T15:07:25;2.47;;;2.27;;
17915;SDS011;9083;49.156;8.982;2022-11-06T15:09:52;3.20;;;2.70;;
17915;SDS011;9083;49.156;8.982;2022-11-06T15:12:18;3.80;;;2.40;;
17915;SDS011;9083;49.156;8.982;2022-11-06T15:15:06;2.53;;;2.37;;
17915;SDS011;9083;49.156;8.982;2022-11-06T15:17:41;2.20;;;2.10;;
17915;SDS011;9083;49.156;8.982;2022-11-06T15:23:00;2.77;;;2.50;;